Time;durP1;ratioP1;P1;durP2;ratioP2;P2;SDS_P1;SDS_P2;PMS_P1;PMS_P2;Temp;Humidity;BMP_temperature;BMP_pressure;BME280_temperature;BME280_humidity;BME280_pressure;Samples;Min_cycle;Max_cycle;Signal;HPM_P1;HPM_P2
2022/12/17 13:08:26;;;;;;;27.98;14.05;;;;;;;4.64;100.00;101499.59;10531345;28;20032;-73
2022/12/17 13:13:38;;;;;;;29.05;14.95;;;;;;;4.64;100.00;101484.63;10538095;28;20093;-71
2022/12/17 13:18:39;;;;;;;25.02;14.65;;;;;;;4.05;100.00;101394.69;10539271;28;20071;-71
2022/12/17 13:23:40;;;;;;;25.10;14.38;;;;;;;4.18;100.00;101432.41;10538497;28;20093;-71
2022/12/17 13:28:43;;;;;;;32.88;15.65;;;;;;;4.57;100.00;101522.81;10538915;28;20047;-70
2022/12/17 13:33:59;;;;;;;27.85;16.45;;;;;;;4.70;100.00;101520.25;10538377;28;20063;-71
2022/12/17 13:39:12;;;;;;;26.95;14.10;;;;;;;4.76;100.00;101533.00;10538326;28;20487;-71
2022/12/17 13:44:20;;;;;;;28.73;14.68;;;;;;;4.62;100.00;101512.84;10538241;28;20043;-71
2022/12/17 13:49:24;;;;;;;29.40;15.40;;;;;;;4.27;100.00;101450.19;10604407;27;20062;-71
2022/12/17 13:54:26;;;;;;;31.17;15.80;;;;;;;4.19;100.00;101446.38;10622772;27;20051;-71
2022/12/17 13:59:28;;;;;;;32.88;15.70;;;;;;;4.34;100.00;101482.22;10622450;27;20042;-71
2022/12/17 14:04:30;;;;;;;40.78;20.33;;;;;;;4.28;100.00;101454.53;10618064;27;20046;-71
2022/12/17 14:09:37;;;;;;;419.30;212.65;;;;;;;4.02;100.00;101376.50;10571915;27;20042;-72
2022/12/17 14:14:41;;;;;;;71.30;35.70;;;;;;;4.63;100.00;101503.16;10597792;28;20088;-71
2022/12/17 14:19:42;;;;;;;166.43;75.15;;;;;;;4.41;100.00;101472.16;10587549;28;20515;-71
2022/12/17 14:24:44;;;;;;;88.55;39.85;;;;;;;4.46;100.00;101485.84;10576183;28;20032;-71
2022/12/17 14:29:45;;;;;;;42.83;20.38;;;;;;;4.67;100.00;101517.81;10572776;28;20039;-71
2022/12/17 14:34:46;;;;;;;145.25;61.45;;;;;;;4.72;100.00;101516.53;10582747;27;20088;-71
2022/12/17 14:39:48;;;;;;;157.68;68.70;;;;;;;4.73;100.00;101527.94;10580130;27;20556;-72
2022/12/17 14:44:59;;;;;;;88.85;40.22;;;;;;;4.86;100.00;101547.22;10581761;27;20039;-71
2022/12/17 14:50:11;;;;;;;121.22;56.08;;;;;;;4.55;100.00;101501.03;10580339;27;20066;-71
2022/12/17 14:55:25;;;;;;;65.43;35.45;;;;;;;4.75;100.00;101533.91;10581119;27;20043;-71
2022/12/17 15:00:26;;;;;;;60.42;27.83;;;;;;;4.64;100.00;101518.00;10580107;27;20047;-71
2022/12/17 15:05:27;;;;;;;66.57;29.85;;;;;;;4.46;100.00;101496.38;10579833;27;20396;-71
2022/12/17 15:10:28;;;;;;;62.90;28.25;;;;;;;4.57;100.00;101505.22;10580939;27;20701;-72
2022/12/17 15:15:28;;;;;;;44.80;19.88;;;;;;;4.70;100.00;101509.72;10582992;27;20042;-71
2022/12/17 15:20:30;;;;;;;44.72;20.23;;;;;;;4.54;100.00;101505.44;10583717;28;20044;-71
2022/12/17 15:25:30;;;;;;;49.30;20.75;;;;;;;4.54;100.00;101520.38;10572040;27;20110;-71
2022/12/17 15:30:31;;;;;;;46.80;21.10;;;;;;;3.99;100.00;101437.16;10612856;27;20129;-71
2022/12/17 15:35:33;;;;;;;50.05;22.48;;;;;;;4.51;100.00;101529.31;10627887;27;20059;-71
2022/12/17 15:40:36;;;;;;;40.40;19.55;;;;;;;4.44;100.00;101524.56;10627942;27;20479;-71
2022/12/17 15:45:48;;;;;;;38.83;18.67;;;;;;;3.25;100.00;101328.03;10615183;27;20059;-72
2022/12/17 15:50:49;;;;;;;42.53;20.77;;;;;;;4.45;100.00;101521.81;10603577;27;20506;-71
2022/12/17 15:55:57;;;;;;;58.13;23.73;;;;;;;4.35;100.00;101500.53;10578000;27;20039;-71
2022/12/17 16:00:58;;;;;;;41.25;19.23;;;;;;;3.91;100.00;101432.38;10576790;27;20082;-72
2022/12/17 16:06:00;;;;;;;37.92;18.75;;;;;;;4.42;100.00;101515.91;10596487;27;20067;-72
2022/12/17 16:11:05;;;;;;;42.28;18.65;;;;;;;3.48;100.00;101368.59;10564345;27;20046;-72
2022/12/17 16:16:07;;;;;;;44.95;19.95;;;;;;;4.33;100.00;101515.56;10593311;27;20047;-72
2022/12/17 16:21:08;;;;;;;48.88;19.15;;;;;;;4.40;100.00;101520.44;10587823;27;20047;-71
2022/12/17 16:26:10;;;;;;;43.00;19.25;;;;;;;4.39;100.00;101514.31;10558556;27;20036;-71
2022/12/17 16:31:14;;;;;;;37.22;18.42;;;;;;;4.34;100.00;101505.91;10583429;27;20062;-72
2022/12/17 16:36:17;;;;;;;39.42;18.77;;;;;;;4.28;100.00;101503.69;10580997;27;20541;-71
2022/12/17 16:41:20;;;;;;;33.97;18.03;;;;;;;4.28;100.00;101501.88;10580637;27;20043;-71
2022/12/17 16:46:33;;;;;;;41.85;18.58;;;;;;;4.33;100.00;101493.69;10582211;27;20452;-71
2022/12/17 16:51:35;;;;;;;37.30;17.60;;;;;;;4.12;100.00;101459.09;10580327;27;20036;-71
2022/12/17 16:56:35;;;;;;;34.53;15.93;;;;;;;4.33;100.00;101498.94;10582809;27;20047;-73
2022/12/17 17:01:38;;;;;;;33.90;16.08;;;;;;;4.21;100.00;101471.66;10586343;27;20510;-71
2022/12/17 17:06:45;;;;;;;34.88;16.45;;;;;;;4.33;100.00;101488.41;10591639;27;20050;-71
2022/12/17 17:11:47;;;;;;;29.85;15.18;;;;;;;4.29;100.00;101500.94;10566351;27;20036;-71
2022/12/17 17:16:47;;;;;;;34.47;16.13;;;;;;;4.28;100.00;101493.16;10592634;27;20522;-72
2022/12/17 17:21:51;;;;;;;35.97;16.35;;;;;;;4.28;100.00;101494.00;10603363;27;20058;-72
2022/12/17 17:26:54;;;;;;;32.17;16.00;;;;;;;4.34;100.00;101504.13;10601079;27;20174;-72
2022/12/17 17:31:54;;;;;;;36.00;15.88;;;;;;;4.30;100.00;101484.19;10607002;27;20039;-71
2022/12/17 17:36:55;;;;;;;35.90;17.27;;;;;;;4.34;100.00;101471.72;10591552;27;20039;-72
2022/12/17 17:41:56;;;;;;;41.65;18.30;;;;;;;4.40;100.00;101473.06;10582966;27;20089;-72
2022/12/17 17:46:57;;;;;;;36.63;16.98;;;;;;;4.38;100.00;101478.44;10586568;27;20055;-71
2022/12/17 17:51:58;;;;;;;55.05;18.90;;;;;;;4.33;100.00;101465.59;10577434;28;20040;-72
2022/12/17 17:56:59;;;;;;;51.25;19.08;;;;;;;4.41;100.00;101465.09;10583804;27;20047;-72
2022/12/17 18:02:00;;;;;;;55.88;18.48;;;;;;;4.36;100.00;101446.13;10577589;28;20146;-71
2022/12/17 18:07:01;;;;;;;52.75;20.30;;;;;;;4.44;100.00;101441.22;10579951;28;20027;-71
2022/12/17 18:13:53;;;;;;;40.35;18.13;;;;;;;4.34;100.00;101429.63;10577410;27;20499;-71
2022/12/17 18:17:23;;;;;;;44.95;18.17;;;;;;;4.39;100.00;101431.94;10577476;28;20051;-72
2022/12/17 18:22:24;;;;;;;42.55;18.27;;;;;;;4.43;100.00;101426.38;10575673;28;20043;-72
2022/12/17 18:27:25;;;;;;;47.03;18.95;;;;;;;4.42;100.00;101434.38;10575008;28;20032;-72
2022/12/17 18:32:26;;;;;;;42.28;17.92;;;;;;;4.37;100.00;101418.03;10576473;28;20137;-72
2022/12/17 18:37:26;;;;;;;36.83;17.23;;;;;;;4.27;100.00;101400.22;10577581;28;20040;-72
2022/12/17 18:47:47;;;;;;;32.28;16.52;;;;;;;4.27;100.00;101409.91;10581357;28;20051;-72
2022/12/17 18:52:48;;;;;;;31.05;15.52;;;;;;;4.31;100.00;101414.03;10582441;28;20040;-72
2022/12/17 18:57:48;;;;;;;35.65;17.05;;;;;;;4.33;100.00;101409.50;10558212;28;20054;-72
2022/12/17 19:02:49;;;;;;;36.53;16.42;;;;;;;3.76;100.00;101317.72;10606457;28;20035;-72
2022/12/17 19:07:50;;;;;;;37.67;17.33;;;;;;;4.27;100.00;101404.66;10621335;28;20516;-72
2022/12/17 19:12:51;;;;;;;30.13;15.98;;;;;;;4.30;100.00;101417.59;10620511;28;20039;-71
2022/12/17 19:17:51;;;;;;;32.80;16.10;;;;;;;4.23;100.00;101411.91;10621588;27;20121;-71
2022/12/17 19:22:52;;;;;;;26.42;13.82;;;;;;;4.26;100.00;101416.13;10604332;27;20479;-73
2022/12/17 19:27:53;;;;;;;31.08;16.13;;;;;;;4.12;100.00;101398.59;10626159;27;20043;-72
2022/12/17 19:32:54;;;;;;;28.58;15.68;;;;;;;3.81;100.00;101347.19;10607828;27;20122;-72
2022/12/17 19:37:55;;;;;;;27.58;14.25;;;;;;;3.88;100.00;101351.09;10599643;27;20044;-73
2022/12/17 19:42:56;;;;;;;36.17;16.65;;;;;;;4.33;100.00;101414.75;10611853;27;20035;-72
2022/12/17 19:47:57;;;;;;;29.40;16.17;;;;;;;4.35;100.00;101420.78;10609062;27;20111;-72
2022/12/17 19:52:58;;;;;;;28.52;16.10;;;;;;;4.35;100.00;101415.50;10565228;27;20588;-71
2022/12/17 19:57:58;;;;;;;34.03;16.38;;;;;;;3.78;100.00;101315.84;10581393;28;20035;-72
2022/12/17 20:02:59;;;;;;;35.00;15.05;;;;;;;4.28;100.00;101401.09;10607265;27;20031;-71
2022/12/17 20:08:00;;;;;;;32.53;15.20;;;;;;;4.24;100.00;101394.31;10597291;27;20035;-73
2022/12/17 20:13:00;;;;;;;28.27;14.55;;;;;;;4.31;100.00;101391.22;10585928;27;20032;-71
2022/12/17 20:18:01;;;;;;;27.73;15.15;;;;;;;4.23;100.00;101380.34;10613343;27;20532;-71
2022/12/17 20:23:02;;;;;;;33.25;16.13;;;;;;;4.25;100.00;101378.47;10626252;27;20063;-72
2022/12/17 20:28:03;;;;;;;35.95;16.75;;;;;;;4.31;100.00;101388.56;10607123;27;20035;-72
2022/12/17 20:33:04;;;;;;;28.20;15.07;;;;;;;4.38;100.00;101382.91;10581833;28;20058;-72
2022/12/17 20:38:04;;;;;;;32.28;16.02;;;;;;;3.95;100.00;101302.44;10582728;28;20046;-72
2022/12/17 20:43:05;;;;;;;29.17;14.77;;;;;;;3.43;100.00;101206.03;10583054;28;20096;-72
2022/12/17 20:48:06;;;;;;;33.03;16.30;;;;;;;4.38;100.00;101365.31;10583004;28;20061;-71
2022/12/17 20:53:07;;;;;;;33.72;16.35;;;;;;;4.35;100.00;101370.78;10582759;28;20138;-71
2022/12/17 20:58:07;;;;;;;32.72;16.52;;;;;;;4.41;100.00;101373.00;10582030;28;20042;-71
2022/12/17 21:03:09;;;;;;;29.55;15.98;;;;;;;4.25;100.00;101346.06;10581576;28;20047;-71
2022/12/17 21:08:10;;;;;;;31.60;16.20;;;;;;;4.42;100.00;101361.53;10582273;28;20550;-71
2022/12/17 21:13:29;;;;;;;37.00;16.25;;;;;;;3.48;100.00;101208.38;10581569;28;20130;-71
2022/12/17 21:18:30;;;;;;;35.05;16.88;;;;;;;3.49;100.00;101204.78;10581579;28;20083;-72
2022/12/17 21:23:32;;;;;;;31.33;15.70;;;;;;;4.51;100.00;101374.06;10581351;28;20059;-72
2022/12/17 21:28:35;;;;;;;34.70;16.20;;;;;;;4.54;100.00;101373.84;10581913;28;20081;-72
2022/12/17 21:33:36;;;;;;;34.08;16.83;;;;;;;4.42;100.00;101352.81;10580520;28;20044;-71
2022/12/17 21:38:37;;;;;;;37.33;16.33;;;;;;;4.37;100.00;101336.47;10580974;28;20047;-72
2022/12/17 21:43:39;;;;;;;38.83;14.93;;;;;;;4.31;100.00;101314.09;10578903;28;20032;-72
2022/12/17 21:48:41;;;;;;;32.13;14.75;;;;;;;4.01;100.00;101269.63;10579746;28;20054;-71
2022/12/17 21:53:42;;;;;;;26.33;13.70;;;;;;;4.46;100.00;101344.63;10579478;28;20126;-72
2022/12/17 21:58:45;;;;;;;25.70;13.38;;;;;;;4.49;100.00;101347.03;10580215;28;20134;-72
2022/12/17 22:03:47;;;;;;;27.52;14.48;;;;;;;4.45;100.00;101350.81;10579944;28;20122;-72
2022/12/17 22:08:48;;;;;;;30.23;15.15;;;;;;;4.23;100.00;101298.81;10579967;28;20499;-72
2022/12/17 22:14:01;;;;;;;27.50;15.00;;;;;;;4.54;100.00;101330.91;10579683;28;20070;-72
2022/12/17 22:19:06;;;;;;;34.83;15.43;;;;;;;4.53;100.00;101316.91;10579187;28;20043;-72
2022/12/17 22:24:07;;;;;;;;;;;;;;;4.75;100.00;101332.06;10580950;28;20071;-72
2022/12/17 22:29:08;;;;;;;31.73;14.73;;;;;;;4.57;100.00;101325.44;10579639;28;19958;-72
2022/12/17 22:34:10;;;;;;;32.25;16.13;;;;;;;4.66;100.00;101339.75;10579333;28;20126;-72
2022/12/17 22:39:13;;;;;;;24.10;14.02;;;;;;;4.57;100.00;101305.22;10579709;28;20043;-72
2022/12/17 22:44:14;;;;;;;28.83;14.85;;;;;;;4.20;100.00;101248.22;10561186;28;20444;-72
2022/12/17 22:49:15;;;;;;;30.73;15.40;;;;;;;4.70;100.00;101338.63;10579426;28;20058;-72
2022/12/17 22:54:16;;;;;;;28.00;14.70;;;;;;;4.79;100.00;101333.56;10581966;28;20043;-72
2022/12/17 22:59:18;;;;;;;28.10;14.50;;;;;;;4.89;100.00;101349.56;10586481;28;20047;-72
2022/12/17 23:04:19;;;;;;;30.02;14.43;;;;;;;4.93;100.00;101337.84;10587204;28;20039;-72
2022/12/17 23:09:19;;;;;;;26.33;14.30;;;;;;;4.74;100.00;101290.06;10586403;28;20032;-72
2022/12/17 23:14:20;;;;;;;31.77;15.45;;;;;;;4.94;100.00;101328.19;10585953;28;20040;-72
2022/12/17 23:19:21;;;;;;;34.72;16.65;;;;;;;4.44;100.00;101254.41;10586297;28;20047;-72
2022/12/17 23:24:22;;;;;;;35.55;17.45;;;;;;;4.96;100.00;101324.47;10585716;28;20510;-71
2022/12/17 23:29:24;;;;;;;31.95;16.35;;;;;;;4.38;100.00;101218.00;10586105;28;20035;-72
2022/12/17 23:34:24;;;;;;;44.40;16.60;;;;;;;4.98;100.00;101305.94;10585809;28;20032;-72
2022/12/17 23:39:25;;;;;;;36.45;17.33;;;;;;;4.92;100.00;101301.94;10585449;28;20048;-72
2022/12/17 23:44:26;;;;;;;40.05;18.52;;;;;;;4.98;100.00;101292.78;10584802;28;20123;-72
2022/12/17 23:49:27;;;;;;;37.55;19.10;;;;;;;5.04;100.00;101300.25;10585456;28;20051;-71
2022/12/17 23:54:28;;;;;;;41.28;19.55;;;;;;;5.11;100.00;101306.75;10585238;28;20051;-71
2022/12/17 23:59:28;;;;;;;41.92;19.42;;;;;;;4.98;100.00;101280.44;10583845;28;20146;-71
